Hlavní strana
METAR-TAF:

METAR-TAF

Letiště :

Gustavus, Aljaška, Spojené státy americké

zeměpisná šířka: 58-25N, zeměpisná délka: 135-42W, výška: 10 m

Aktuální stav počasí

Zpráva byla vytvořena před 42 minutami, v 02:56 UTC
Bezvětří
Teplota -7°C
Vlhkost vzduchu 73%
Tlak 1031 hPa
Viditelnost: 16.1 km
Jasno

METAR: PAGS 170256Z AUTO 00000KT 10SM CLR M07/M11 A3044 RMK AO2 SLP310 T10671106 53010 FZRANO

Čas: 18:38 (03:38 UTC)

Předpověď počasí

Zpráva byla vytvořena před 4 hodinami a 7 minutami, v 23:31 UTC
Předpověď platná od 17 v 00 UTC do 17 v 24 UTC
Severní vítr 7 kt
Viditelnost: 10 km
Jasno
Od 17 v 0600 UTC
vítr z různých směrů 4 kt
Viditelnost: 10 km
Skoro jasno ve výšce 20000 ft
Od 17 v 2100 UTC
Východní vítr 5 kt
Viditelnost: 10 km
Oblačno až skoro zataženo ve výšce 8000 ft

TAF: PAGS 162331Z 1700/1724 36007KT P6SM SKC FM170600 VRB04KT P6SM FEW200 FM172100 08005KT P6SM BKN080 AMD LTD TO CLD VIS AND WIND

Stav a předpovědi počasí z více než 4 000 letišť (zprávy METAR a TAF).

Červené a žluté tečky na mapě představují dostupné meteorologické stanice.

Když kurzor umístíte na tečku, zobrazí se název stanice.

Pak kliknutím zobrazíte stav a předpověď počasí.

Chcete-li změnit mapu, kliknutím na zelené tlačítko se znaménkem +mapu přiblížíte, kliknutím na zelené tlačítko se znaménkem – mapu oddálíte a kliknutím na zelené šipky přejdete na sousední mapy.


METAR-TAF: